sensor_id;sensor_type;location;lat;lon;timestamp;pressure;altitude;pressure_sealevel;temperature;humidity
60646;BME280;46462;32.608;-117.032;2022-12-07T00:00:30;99585.46;;;20.77;44.59
60646;BME280;46462;32.608;-117.032;2022-12-07T00:02:59;99582.33;;;20.23;45.78
60646;BME280;46462;32.608;-117.032;2022-12-07T00:05:30;99584.00;;;19.67;47.10
60646;BME280;46462;32.608;-117.032;2022-12-07T00:08:00;99588.05;;;19.24;48.11
60646;BME280;46462;32.608;-117.032;2022-12-07T00:10:30;99589.36;;;18.74;49.28
60646;BME280;46462;32.608;-117.032;2022-12-07T00:13:00;99593.84;;;19.05;49.29
60646;BME280;46462;32.608;-117.032;2022-12-07T00:15:30;99596.85;;;21.25;44.15
60646;BME280;46462;32.608;-117.032;2022-12-07T00:18:01;99599.39;;;21.65;42.33
60646;BME280;46462;32.608;-117.032;2022-12-07T00:20:31;99605.75;;;20.90;43.75
60646;BME280;46462;32.608;-117.032;2022-12-07T00:23:01;99610.75;;;20.36;44.89
60646;BME280;46462;32.608;-117.032;2022-12-07T00:25:31;99617.14;;;19.79;45.97
60646;BME280;46462;32.608;-117.032;2022-12-07T00:28:01;99617.47;;;19.07;47.51
60646;BME280;46462;32.608;-117.032;2022-12-07T00:30:31;99597.68;;;18.91;47.89
60646;BME280;46462;32.608;-117.032;2022-12-07T00:33:02;99601.43;;;21.21;43.01
60646;BME280;46462;32.608;-117.032;2022-12-07T00:35:32;99600.55;;;22.43;40.40
60646;BME280;46462;32.608;-117.032;2022-12-07T00:38:02;99604.93;;;23.31;38.59
60646;BME280;46462;32.608;-117.032;2022-12-07T00:40:32;99600.48;;;23.79;37.61
60646;BME280;46462;32.608;-117.032;2022-12-07T00:43:02;99605.86;;;24.09;37.01
60646;BME280;46462;32.608;-117.032;2022-12-07T00:45:33;99610.27;;;24.26;36.74
60646;BME280;46462;32.608;-117.032;2022-12-07T00:48:03;99614.95;;;24.42;36.42
60646;BME280;46462;32.608;-117.032;2022-12-07T00:50:33;99612.68;;;24.49;36.24
60646;BME280;46462;32.608;-117.032;2022-12-07T00:53:03;99617.93;;;24.55;36.05
60646;BME280;46462;32.608;-117.032;2022-12-07T00:55:34;99617.80;;;24.57;36.02
60646;BME280;46462;32.608;-117.032;2022-12-07T00:58:04;99616.20;;;24.61;35.97
60646;BME280;46462;32.608;-117.032;2022-12-07T01:00:36;99618.00;;;24.53;36.08
60646;BME280;46462;32.608;-117.032;2022-12-07T01:03:04;99626.22;;;24.57;36.09
60646;BME280;46462;32.608;-117.032;2022-12-07T01:05:34;99634.31;;;24.57;36.11
60646;BME280;46462;32.608;-117.032;2022-12-07T01:08:06;99637.66;;;24.55;36.09
60646;BME280;46462;32.608;-117.032;2022-12-07T01:10:34;99635.20;;;24.52;36.12
60646;BME280;46462;32.608;-117.032;2022-12-07T01:13:05;99634.85;;;24.54;36.21
60646;BME280;46462;32.608;-117.032;2022-12-07T01:15:38;99643.13;;;24.54;36.18
60646;BME280;46462;32.608;-117.032;2022-12-07T01:18:05;99649.68;;;24.56;36.15
60646;BME280;46462;32.608;-117.032;2022-12-07T01:20:35;99649.13;;;24.50;36.29
60646;BME280;46462;32.608;-117.032;2022-12-07T01:23:05;99647.07;;;24.46;36.43
60646;BME280;46462;32.608;-117.032;2022-12-07T01:25:36;99651.74;;;24.42;36.55
60646;BME280;46462;32.608;-117.032;2022-12-07T01:28:06;99657.83;;;24.44;36.51
60646;BME280;46462;32.608;-117.032;2022-12-07T01:30:36;99658.08;;;24.44;36.48
60646;BME280;46462;32.608;-117.032;2022-12-07T01:33:06;99660.17;;;24.41;36.57
60646;BME280;46462;32.608;-117.032;2022-12-07T01:35:36;99663.37;;;24.37;36.63
60646;BME280;46462;32.608;-117.032;2022-12-07T01:38:07;99668.44;;;24.33;36.70
60646;BME280;46462;32.608;-117.032;2022-12-07T01:40:37;99670.10;;;24.33;36.70
60646;BME280;46462;32.608;-117.032;2022-12-07T01:43:15;99673.74;;;24.31;36.76
60646;BME280;46462;32.608;-117.032;2022-12-07T01:45:41;99674.55;;;24.30;36.84
60646;BME280;46462;32.608;-117.032;2022-12-07T01:48:08;99671.40;;;24.30;36.76
60646;BME280;46462;32.608;-117.032;2022-12-07T01:50:38;99669.95;;;24.30;36.80
60646;BME280;46462;32.608;-117.032;2022-12-07T01:53:10;99674.55;;;24.27;36.87
60646;BME280;46462;32.608;-117.032;2022-12-07T01:55:42;99676.12;;;24.22;36.97
60646;BME280;46462;32.608;-117.032;2022-12-07T01:58:08;99676.62;;;24.18;36.96
60646;BME280;46462;32.608;-117.032;2022-12-07T02:00:39;99675.22;;;24.15;37.03
60646;BME280;46462;32.608;-117.032;2022-12-07T02:03:13;99671.82;;;24.13;37.04
60646;BME280;46462;32.608;-117.032;2022-12-07T02:05:41;99673.96;;;24.12;37.12
60646;BME280;46462;32.608;-117.032;2022-12-07T02:08:10;99675.67;;;24.12;37.02
60646;BME280;46462;32.608;-117.032;2022-12-07T02:10:40;99675.36;;;24.06;37.23
60646;BME280;46462;32.608;-117.032;2022-12-07T02:13:12;99669.33;;;24.09;37.14
60646;BME280;46462;32.608;-117.032;2022-12-07T02:15:51;99664.18;;;24.04;37.23
60646;BME280;46462;32.608;-117.032;2022-12-07T02:18:16;99660.61;;;24.05;37.28
60646;BME280;46462;32.608;-117.032;2022-12-07T02:20:45;99662.81;;;24.00;37.38
60646;BME280;46462;32.608;-117.032;2022-12-07T02:25:54;99665.53;;;23.95;37.34
60646;BME280;46462;32.608;-117.032;2022-12-07T02:28:16;99664.61;;;23.92;37.48
60646;BME280;46462;32.608;-117.032;2022-12-07T02:30:44;99666.54;;;23.96;37.35
60646;BME280;46462;32.608;-117.032;2022-12-07T02:33:15;99666.43;;;23.88;37.49
60646;BME280;46462;32.608;-117.032;2022-12-07T02:35:44;99662.89;;;23.84;37.70
60646;BME280;46462;32.608;-117.032;2022-12-07T02:38:16;99662.07;;;23.85;37.53
60646;BME280;46462;32.608;-117.032;2022-12-07T02:40:45;99661.80;;;23.87;37.64
60646;BME280;46462;32.608;-117.032;2022-12-07T02:43:16;99662.84;;;23.85;37.61
60646;BME280;46462;32.608;-117.032;2022-12-07T02:45:43;99662.39;;;23.83;37.61
60646;BME280;46462;32.608;-117.032;2022-12-07T02:48:14;99662.48;;;23.79;37.81
60646;BME280;46462;32.608;-117.032;2022-12-07T02:50:47;99662.31;;;23.79;37.73
60646;BME280;46462;32.608;-117.032;2022-12-07T02:55:43;99663.96;;;23.73;37.83
60646;BME280;46462;32.608;-117.032;2022-12-07T02:58:23;99662.07;;;23.73;37.87
60646;BME280;46462;32.608;-117.032;2022-12-07T03:00:51;99663.07;;;23.69;37.90
60646;BME280;46462;32.608;-117.032;2022-12-07T03:03:14;99662.63;;;23.68;37.95
60646;BME280;46462;32.608;-117.032;2022-12-07T03:05:54;99661.16;;;23.72;37.98
60646;BME280;46462;32.608;-117.032;2022-12-07T03:08:20;99665.40;;;23.67;37.95
60646;BME280;46462;32.608;-117.032;2022-12-07T03:10:50;99674.97;;;23.69;38.02
60646;BME280;46462;32.608;-117.032;2022-12-07T03:13:21;99679.39;;;23.71;37.83
60646;BME280;46462;32.608;-117.032;2022-12-07T03:15:49;99678.06;;;23.75;37.96
60646;BME280;46462;32.608;-117.032;2022-12-07T03:18:18;99679.72;;;23.69;37.92
60646;BME280;46462;32.608;-117.032;2022-12-07T03:20:47;99686.00;;;23.66;37.89
60646;BME280;46462;32.608;-117.032;2022-12-07T03:23:16;99682.46;;;23.57;38.10
60646;BME280;46462;32.608;-117.032;2022-12-07T03:25:49;99679.34;;;23.55;38.16
60646;BME280;46462;32.608;-117.032;2022-12-07T03:28:18;99680.60;;;23.58;38.37
60646;BME280;46462;32.608;-117.032;2022-12-07T03:30:49;99676.74;;;23.61;38.02
60646;BME280;46462;32.608;-117.032;2022-12-07T03:33:20;99678.15;;;23.58;38.19
60646;BME280;46462;32.608;-117.032;2022-12-07T03:35:50;99688.92;;;23.56;38.06
60646;BME280;46462;32.608;-117.032;2022-12-07T03:38:19;99695.95;;;23.53;38.18
60646;BME280;46462;32.608;-117.032;2022-12-07T03:40:50;99702.88;;;23.54;38.28
60646;BME280;46462;32.608;-117.032;2022-12-07T03:43:17;99702.95;;;23.52;38.20
60646;BME280;46462;32.608;-117.032;2022-12-07T03:45:56;99701.94;;;23.48;38.37
60646;BME280;46462;32.608;-117.032;2022-12-07T03:48:22;99704.24;;;23.52;38.09
60646;BME280;46462;32.608;-117.032;2022-12-07T03:50:52;99706.05;;;23.53;38.32
60646;BME280;46462;32.608;-117.032;2022-12-07T03:53:22;99706.83;;;23.54;38.31
60646;BME280;46462;32.608;-117.032;2022-12-07T03:55:49;99707.39;;;23.48;38.35
60646;BME280;46462;32.608;-117.032;2022-12-07T03:58:20;99703.78;;;23.52;38.13
60646;BME280;46462;32.608;-117.032;2022-12-07T04:00:49;99706.78;;;23.49;38.23
60646;BME280;46462;32.608;-117.032;2022-12-07T04:03:18;99712.25;;;23.47;38.26
60646;BME280;46462;32.608;-117.032;2022-12-07T04:05:49;99714.63;;;23.44;38.32
60646;BME280;46462;32.608;-117.032;2022-12-07T04:08:19;99719.44;;;23.43;38.49
60646;BME280;46462;32.608;-117.032;2022-12-07T04:10:49;99719.43;;;23.45;38.29
60646;BME280;46462;32.608;-117.032;2022-12-07T04:13:19;99720.61;;;23.47;38.44
60646;BME280;46462;32.608;-117.032;2022-12-07T04:15:49;99722.43;;;23.45;38.41
60646;BME280;46462;32.608;-117.032;2022-12-07T04:18:20;99724.24;;;23.42;38.29
60646;BME280;46462;32.608;-117.032;2022-12-07T04:20:50;99727.76;;;23.40;38.44
60646;BME280;46462;32.608;-117.032;2022-12-07T04:23:20;99729.88;;;23.44;38.29
60646;BME280;46462;32.608;-117.032;2022-12-07T04:25:50;99730.84;;;23.45;38.26
60646;BME280;46462;32.608;-117.032;2022-12-07T04:28:20;99735.58;;;23.45;38.23
60646;BME280;46462;32.608;-117.032;2022-12-07T04:30:51;99745.71;;;23.40;38.43
60646;BME280;46462;32.608;-117.032;2022-12-07T04:33:21;99747.33;;;23.45;38.19
60646;BME280;46462;32.608;-117.032;2022-12-07T04:35:51;99745.39;;;23.41;38.35
60646;BME280;46462;32.608;-117.032;2022-12-07T04:38:21;99743.87;;;23.41;38.37
60646;BME280;46462;32.608;-117.032;2022-12-07T04:40:51;99742.76;;;23.37;38.33
60646;BME280;46462;32.608;-117.032;2022-12-07T04:43:22;99742.70;;;23.35;38.53
60646;BME280;46462;32.608;-117.032;2022-12-07T04:45:52;99742.67;;;23.27;38.45
60646;BME280;46462;32.608;-117.032;2022-12-07T04:48:22;99738.74;;;23.27;38.36
60646;BME280;46462;32.608;-117.032;2022-12-07T04:50:52;99736.05;;;23.32;38.56
60646;BME280;46462;32.608;-117.032;2022-12-07T04:53:23;99738.77;;;23.29;38.56
60646;BME280;46462;32.608;-117.032;2022-12-07T04:55:53;99746.96;;;23.25;38.65
60646;BME280;46462;32.608;-117.032;2022-12-07T04:58:23;99745.02;;;23.31;38.52
60646;BME280;46462;32.608;-117.032;2022-12-07T05:00:55;99746.70;;;23.20;38.54
60646;BME280;46462;32.608;-117.032;2022-12-07T05:03:23;99751.34;;;23.22;38.59
60646;BME280;46462;32.608;-117.032;2022-12-07T05:05:53;99752.03;;;23.23;38.49
60646;BME280;46462;32.608;-117.032;2022-12-07T05:08:24;99748.78;;;23.19;38.58
60646;BME280;46462;32.608;-117.032;2022-12-07T05:10:54;99748.97;;;23.11;38.74
60646;BME280;46462;32.608;-117.032;2022-12-07T05:13:24;99753.84;;;23.13;38.74
60646;BME280;46462;32.608;-117.032;2022-12-07T05:15:54;99759.35;;;23.10;38.68
60646;BME280;46462;32.608;-117.032;2022-12-07T05:18:25;99762.67;;;23.13;38.81
60646;BME280;46462;32.608;-117.032;2022-12-07T05:20:55;99763.05;;;23.13;38.74
60646;BME280;46462;32.608;-117.032;2022-12-07T05:23:25;99764.97;;;23.09;38.72
60646;BME280;46462;32.608;-117.032;2022-12-07T05:25:55;99766.57;;;23.12;38.72
60646;BME280;46462;32.608;-117.032;2022-12-07T05:28:25;99765.48;;;23.14;38.68
60646;BME280;46462;32.608;-117.032;2022-12-07T05:30:56;99762.75;;;23.09;38.73
60646;BME280;46462;32.608;-117.032;2022-12-07T05:33:26;99763.87;;;23.09;38.69
60646;BME280;46462;32.608;-117.032;2022-12-07T05:35:56;99768.84;;;23.03;38.93
60646;BME280;46462;32.608;-117.032;2022-12-07T05:38:27;99774.95;;;23.02;38.85
60646;BME280;46462;32.608;-117.032;2022-12-07T05:41:00;99776.71;;;23.07;38.72
60646;BME280;46462;32.608;-117.032;2022-12-07T05:43:27;99780.14;;;23.11;38.61
60646;BME280;46462;32.608;-117.032;2022-12-07T05:45:57;99790.09;;;22.97;38.98
60646;BME280;46462;32.608;-117.032;2022-12-07T05:48:27;99790.99;;;23.06;38.72
60646;BME280;46462;32.608;-117.032;2022-12-07T05:50:57;99788.15;;;22.97;38.73
60646;BME280;46462;32.608;-117.032;2022-12-07T05:53:28;99789.88;;;22.96;38.86
60646;BME280;46462;32.608;-117.032;2022-12-07T05:55:58;99796.18;;;22.94;38.99
60646;BME280;46462;32.608;-117.032;2022-12-07T05:58:28;99797.92;;;23.01;38.77
60646;BME280;46462;32.608;-117.032;2022-12-07T06:00:58;99798.53;;;22.97;38.67
60646;BME280;46462;32.608;-117.032;2022-12-07T06:03:28;99799.57;;;22.92;38.88
60646;BME280;46462;32.608;-117.032;2022-12-07T06:05:58;99793.50;;;22.83;39.18
60646;BME280;46462;32.608;-117.032;2022-12-07T06:08:29;99792.54;;;22.84;39.16
60646;BME280;46462;32.608;-117.032;2022-12-07T06:10:59;99790.17;;;22.84;39.05
60646;BME280;46462;32.608;-117.032;2022-12-07T06:13:29;99790.00;;;22.87;38.87
60646;BME280;46462;32.608;-117.032;2022-12-07T06:15:59;99790.64;;;22.72;39.22
60646;BME280;46462;32.608;-117.032;2022-12-07T06:18:29;99792.90;;;22.75;39.21
60646;BME280;46462;32.608;-117.032;2022-12-07T06:21:00;99799.52;;;22.72;39.09
60646;BME280;46462;32.608;-117.032;2022-12-07T06:23:30;99803.30;;;22.67;39.32
60646;BME280;46462;32.608;-117.032;2022-12-07T06:26:00;99803.41;;;22.68;39.23
60646;BME280;46462;32.608;-117.032;2022-12-07T06:28:30;99802.86;;;22.83;38.96
60646;BME280;46462;32.608;-117.032;2022-12-07T06:31:02;99808.83;;;22.81;38.84
60646;BME280;46462;32.608;-117.032;2022-12-07T06:33:31;99819.83;;;22.62;39.46
60646;BME280;46462;32.608;-117.032;2022-12-07T06:36:01;99822.48;;;22.55;39.33
60646;BME280;46462;32.608;-117.032;2022-12-07T06:38:31;99821.62;;;22.58;39.41
60646;BME280;46462;32.608;-117.032;2022-12-07T06:41:01;99817.32;;;22.52;39.52
60646;BME280;46462;32.608;-117.032;2022-12-07T06:43:32;99810.57;;;22.56;39.41
60646;BME280;46462;32.608;-117.032;2022-12-07T06:46:02;99809.19;;;22.47;39.71
60646;BME280;46462;32.608;-117.032;2022-12-07T06:48:32;99809.06;;;22.44;39.71
60646;BME280;46462;32.608;-117.032;2022-12-07T06:51:02;99806.57;;;22.54;39.47
60646;BME280;46462;32.608;-117.032;2022-12-07T06:53:32;99810.72;;;22.57;39.40
60646;BME280;46462;32.608;-117.032;2022-12-07T06:56:03;99812.47;;;22.43;39.51
60646;BME280;46462;32.608;-117.032;2022-12-07T06:58:33;99813.28;;;22.34;39.69
60646;BME280;46462;32.608;-117.032;2022-12-07T07:01:07;99814.74;;;22.43;39.55
60646;BME280;46462;32.608;-117.032;2022-12-07T07:03:33;99818.32;;;22.51;39.29
60646;BME280;46462;32.608;-117.032;2022-12-07T07:06:04;99820.44;;;22.49;39.23
60646;BME280;46462;32.608;-117.032;2022-12-07T07:08:34;99821.79;;;22.42;39.52
60646;BME280;46462;32.608;-117.032;2022-12-07T07:11:05;99822.73;;;22.46;39.14
60646;BME280;46462;32.608;-117.032;2022-12-07T07:13:34;99821.40;;;22.44;39.31
60646;BME280;46462;32.608;-117.032;2022-12-07T07:16:05;99822.30;;;22.40;39.55
60646;BME280;46462;32.608;-117.032;2022-12-07T07:18:35;99824.82;;;22.41;39.42
60646;BME280;46462;32.608;-117.032;2022-12-07T07:21:05;99829.94;;;22.44;39.41
60646;BME280;46462;32.608;-117.032;2022-12-07T07:23:35;99835.11;;;22.43;39.31
60646;BME280;46462;32.608;-117.032;2022-12-07T07:26:05;99836.93;;;22.33;39.46
60646;BME280;46462;32.608;-117.032;2022-12-07T07:28:35;99838.40;;;22.39;39.40
60646;BME280;46462;32.608;-117.032;2022-12-07T07:31:06;99836.39;;;22.42;39.06
60646;BME280;46462;32.608;-117.032;2022-12-07T07:33:36;99836.78;;;22.30;39.48
60646;BME280;46462;32.608;-117.032;2022-12-07T07:36:07;99836.26;;;22.29;39.58
60646;BME280;46462;32.608;-117.032;2022-12-07T07:38:36;99840.55;;;22.34;39.37
60646;BME280;46462;32.608;-117.032;2022-12-07T07:41:06;99845.53;;;22.28;39.46
60646;BME280;46462;32.608;-117.032;2022-12-07T07:43:36;99837.62;;;22.25;39.54
60646;BME280;46462;32.608;-117.032;2022-12-07T07:46:07;99838.21;;;22.28;39.21
60646;BME280;46462;32.608;-117.032;2022-12-07T07:48:37;99837.66;;;22.21;39.48
60646;BME280;46462;32.608;-117.032;2022-12-07T07:51:08;99837.07;;;22.15;39.54
60646;BME280;46462;32.608;-117.032;2022-12-07T07:53:37;99833.96;;;22.20;39.32
60646;BME280;46462;32.608;-117.032;2022-12-07T07:56:08;99834.12;;;22.12;39.58
60646;BME280;46462;32.608;-117.032;2022-12-07T07:58:38;99833.84;;;22.14;39.51
60646;BME280;46462;32.608;-117.032;2022-12-07T08:01:08;99834.40;;;22.13;39.29
60646;BME280;46462;32.608;-117.032;2022-12-07T08:03:38;99830.89;;;22.14;39.71
60646;BME280;46462;32.608;-117.032;2022-12-07T08:06:08;99829.07;;;22.12;39.32
60646;BME280;46462;32.608;-117.032;2022-12-07T08:08:39;99825.85;;;22.07;39.20
60646;BME280;46462;32.608;-117.032;2022-12-07T08:11:09;99820.76;;;22.20;39.53
60646;BME280;46462;32.608;-117.032;2022-12-07T08:13:39;99818.61;;;22.13;39.45
60646;BME280;46462;32.608;-117.032;2022-12-07T08:16:10;99821.28;;;22.04;39.55
60646;BME280;46462;32.608;-117.032;2022-12-07T08:18:41;99822.84;;;21.99;39.88
60646;BME280;46462;32.608;-117.032;2022-12-07T08:21:12;99821.27;;;21.97;39.47
60646;BME280;46462;32.608;-117.032;2022-12-07T08:23:40;99815.58;;;22.00;39.75
60646;BME280;46462;32.608;-117.032;2022-12-07T08:26:12;99814.41;;;22.04;39.34
60646;BME280;46462;32.608;-117.032;2022-12-07T08:28:41;99819.53;;;22.00;39.50
60646;BME280;46462;32.608;-117.032;2022-12-07T08:31:13;99818.63;;;21.96;39.62
60646;BME280;46462;32.608;-117.032;2022-12-07T08:33:41;99820.43;;;22.07;39.16
60646;BME280;46462;32.608;-117.032;2022-12-07T08:36:13;99823.97;;;21.95;39.56
60646;BME280;46462;32.608;-117.032;2022-12-07T08:38:42;99819.74;;;21.94;39.43
60646;BME280;46462;32.608;-117.032;2022-12-07T08:41:11;99818.87;;;21.93;39.50
60646;BME280;46462;32.608;-117.032;2022-12-07T08:43:42;99816.73;;;21.78;39.84
60646;BME280;46462;32.608;-117.032;2022-12-07T08:46:15;99818.06;;;21.87;39.74
60646;BME280;46462;32.608;-117.032;2022-12-07T08:48:46;99818.27;;;21.68;40.14
60646;BME280;46462;32.608;-117.032;2022-12-07T08:51:13;99820.93;;;21.81;39.82
60646;BME280;46462;32.608;-117.032;2022-12-07T08:53:43;99824.34;;;21.89;39.58
60646;BME280;46462;32.608;-117.032;2022-12-07T08:56:13;99827.24;;;21.78;39.68
60646;BME280;46462;32.608;-117.032;2022-12-07T08:58:43;99827.94;;;21.82;39.57
60646;BME280;46462;32.608;-117.032;2022-12-07T09:01:13;99830.57;;;21.77;39.86
60646;BME280;46462;32.608;-117.032;2022-12-07T09:03:44;99833.38;;;21.76;39.71
60646;BME280;46462;32.608;-117.032;2022-12-07T09:06:14;99832.34;;;21.71;39.57
60646;BME280;46462;32.608;-117.032;2022-12-07T09:08:47;99837.13;;;21.67;39.89
60646;BME280;46462;32.608;-117.032;2022-12-07T09:11:14;99837.69;;;21.72;39.70
60646;BME280;46462;32.608;-117.032;2022-12-07T09:13:44;99838.09;;;21.74;39.58
60646;BME280;46462;32.608;-117.032;2022-12-07T09:16:14;99835.59;;;21.74;39.50
60646;BME280;46462;32.608;-117.032;2022-12-07T09:18:45;99835.04;;;21.72;39.46
60646;BME280;46462;32.608;-117.032;2022-12-07T09:21:15;99836.15;;;21.68;39.85
60646;BME280;46462;32.608;-117.032;2022-12-07T09:23:45;99840.07;;;21.68;39.71
60646;BME280;46462;32.608;-117.032;2022-12-07T09:26:15;99840.73;;;21.67;39.34
60646;BME280;46462;32.608;-117.032;2022-12-07T09:28:46;99846.47;;;21.75;39.25
60646;BME280;46462;32.608;-117.032;2022-12-07T09:31:16;99851.45;;;21.74;39.26
60646;BME280;46462;32.608;-117.032;2022-12-07T09:33:46;99849.55;;;21.75;39.22
60646;BME280;46462;32.608;-117.032;2022-12-07T09:36:16;99845.80;;;21.66;39.43
60646;BME280;46462;32.608;-117.032;2022-12-07T09:38:47;99848.87;;;21.57;39.40
60646;BME280;46462;32.608;-117.032;2022-12-07T09:41:17;99851.11;;;21.54;39.40
60646;BME280;46462;32.608;-117.032;2022-12-07T09:43:47;99849.69;;;21.54;39.54
60646;BME280;46462;32.608;-117.032;2022-12-07T09:46:19;99851.92;;;21.45;39.90
60646;BME280;46462;32.608;-117.032;2022-12-07T09:48:48;99852.21;;;21.35;40.02
60646;BME280;46462;32.608;-117.032;2022-12-07T09:51:20;99853.00;;;21.42;39.81
60646;BME280;46462;32.608;-117.032;2022-12-07T09:53:49;99857.06;;;21.44;39.87
60646;BME280;46462;32.608;-117.032;2022-12-07T09:56:20;99854.92;;;21.50;39.46
60646;BME280;46462;32.608;-117.032;2022-12-07T09:58:49;99858.61;;;21.49;39.47
60646;BME280;46462;32.608;-117.032;2022-12-07T10:01:20;99861.60;;;21.49;39.46
60646;BME280;46462;32.608;-117.032;2022-12-07T10:03:51;99859.34;;;21.49;39.50
60646;BME280;46462;32.608;-117.032;2022-12-07T10:06:19;99864.00;;;21.31;39.81
60646;BME280;46462;32.608;-117.032;2022-12-07T10:08:49;99863.68;;;21.44;39.50
60646;BME280;46462;32.608;-117.032;2022-12-07T10:11:19;99865.16;;;21.44;39.39
60646;BME280;46462;32.608;-117.032;2022-12-07T10:13:52;99864.20;;;21.30;39.93
60646;BME280;46462;32.608;-117.032;2022-12-07T10:16:31;99865.05;;;21.36;39.56
60646;BME280;46462;32.608;-117.032;2022-12-07T10:18:51;99868.15;;;21.42;39.29
60646;BME280;46462;32.608;-117.032;2022-12-07T10:21:21;99869.28;;;21.23;39.94
60646;BME280;46462;32.608;-117.032;2022-12-07T10:24:00;99865.34;;;21.32;39.71
60646;BME280;46462;32.608;-117.032;2022-12-07T10:28:51;99862.95;;;21.28;39.96
60646;BME280;46462;32.608;-117.032;2022-12-07T10:31:23;99863.16;;;21.35;39.73
60646;BME280;46462;32.608;-117.032;2022-12-07T10:33:54;99860.18;;;21.42;39.11
60646;BME280;46462;32.608;-117.032;2022-12-07T10:36:24;99857.29;;;21.20;39.68
60646;BME280;46462;32.608;-117.032;2022-12-07T10:38:58;99858.54;;;21.11;39.88
60646;BME280;46462;32.608;-117.032;2022-12-07T10:41:22;99859.83;;;21.09;40.00
60646;BME280;46462;32.608;-117.032;2022-12-07T10:43:54;99861.91;;;21.29;39.32
60646;BME280;46462;32.608;-117.032;2022-12-07T10:46:39;99869.10;;;21.08;39.94
60646;BME280;46462;32.608;-117.032;2022-12-07T10:49:01;99870.55;;;21.00;40.28
60646;BME280;46462;32.608;-117.032;2022-12-07T10:51:30;99872.76;;;21.09;39.89
60646;BME280;46462;32.608;-117.032;2022-12-07T10:54:02;99872.77;;;21.15;39.66
60646;BME280;46462;32.608;-117.032;2022-12-07T10:56:32;99869.68;;;21.26;39.48
60646;BME280;46462;32.608;-117.032;2022-12-07T10:59:04;99868.06;;;21.24;39.50
60646;BME280;46462;32.608;-117.032;2022-12-07T11:01:27;99863.53;;;21.32;39.37
60646;BME280;46462;32.608;-117.032;2022-12-07T11:06:29;99861.42;;;21.14;39.39
60646;BME280;46462;32.608;-117.032;2022-12-07T11:09:04;99858.24;;;21.17;39.25
60646;BME280;46462;32.608;-117.032;2022-12-07T11:11:29;99857.34;;;21.31;39.29
60646;BME280;46462;32.608;-117.032;2022-12-07T11:13:59;99856.12;;;21.28;38.85
60646;BME280;46462;32.608;-117.032;2022-12-07T11:16:32;99856.58;;;21.31;38.90
60646;BME280;46462;32.608;-117.032;2022-12-07T11:21:29;99858.93;;;21.25;38.86
60646;BME280;46462;32.608;-117.032;2022-12-07T11:24:03;99859.40;;;21.10;39.25
60646;BME280;46462;32.608;-117.032;2022-12-07T11:26:38;99858.72;;;21.13;39.30
60646;BME280;46462;32.608;-117.032;2022-12-07T11:29:11;99857.46;;;21.10;39.41
60646;BME280;46462;32.608;-117.032;2022-12-07T11:31:31;99857.07;;;21.05;39.55
60646;BME280;46462;32.608;-117.032;2022-12-07T11:34:03;99858.47;;;21.04;39.26
60646;BME280;46462;32.608;-117.032;2022-12-07T11:36:36;99856.39;;;20.99;39.60
60646;BME280;46462;32.608;-117.032;2022-12-07T11:39:00;99854.30;;;21.03;39.35
60646;BME280;46462;32.608;-117.032;2022-12-07T11:41:31;99856.73;;;20.88;39.60
60646;BME280;46462;32.608;-117.032;2022-12-07T11:44:01;99859.76;;;20.95;39.53
60646;BME280;46462;32.608;-117.032;2022-12-07T11:46:34;99857.63;;;20.93;39.45
60646;BME280;46462;32.608;-117.032;2022-12-07T11:49:04;99852.29;;;20.91;39.52
60646;BME280;46462;32.608;-117.032;2022-12-07T11:51:30;99846.67;;;20.85;39.81
60646;BME280;46462;32.608;-117.032;2022-12-07T11:54:02;99839.84;;;20.91;39.42
60646;BME280;46462;32.608;-117.032;2022-12-07T11:56:31;99845.68;;;20.97;39.08
60646;BME280;46462;32.608;-117.032;2022-12-07T11:59:03;99857.14;;;20.92;39.47
60646;BME280;46462;32.608;-117.032;2022-12-07T12:01:41;99859.67;;;20.89;39.43
60646;BME280;46462;32.608;-117.032;2022-12-07T12:04:06;99859.65;;;20.80;39.66
60646;BME280;46462;32.608;-117.032;2022-12-07T12:06:30;99855.49;;;20.77;39.59
60646;BME280;46462;32.608;-117.032;2022-12-07T12:09:04;99854.28;;;20.75;39.61
60646;BME280;46462;32.608;-117.032;2022-12-07T12:11:42;99856.58;;;20.71;39.81
60646;BME280;46462;32.608;-117.032;2022-12-07T12:14:16;99852.56;;;20.77;39.50
60646;BME280;46462;32.608;-117.032;2022-12-07T12:16:42;99847.70;;;20.79;39.46
60646;BME280;46462;32.608;-117.032;2022-12-07T12:19:17;99855.29;;;20.75;39.58
60646;BME280;46462;32.608;-117.032;2022-12-07T12:21:31;99866.47;;;20.67;39.77
60646;BME280;46462;32.608;-117.032;2022-12-07T12:24:04;99866.20;;;20.73;39.44
60646;BME280;46462;32.608;-117.032;2022-12-07T12:26:33;99864.97;;;20.78;39.27
60646;BME280;46462;32.608;-117.032;2022-12-07T12:29:04;99870.56;;;20.82;39.20
60646;BME280;46462;32.608;-117.032;2022-12-07T12:31:36;99879.44;;;20.71;39.41
60646;BME280;46462;32.608;-117.032;2022-12-07T12:34:04;99885.18;;;20.78;39.23
60646;BME280;46462;32.608;-117.032;2022-12-07T12:39:11;99887.04;;;20.76;39.05
60646;BME280;46462;32.608;-117.032;2022-12-07T12:44:08;99901.70;;;20.73;39.09
60646;BME280;46462;32.608;-117.032;2022-12-07T12:51:38;99908.70;;;20.60;39.58
60646;BME280;46462;32.608;-117.032;2022-12-07T12:54:05;99911.81;;;20.47;40.10
60646;BME280;46462;32.608;-117.032;2022-12-07T12:56:43;99910.47;;;20.56;39.73
60646;BME280;46462;32.608;-117.032;2022-12-07T13:01:41;99913.25;;;20.48;39.37
60646;BME280;46462;32.608;-117.032;2022-12-07T13:06:37;99916.00;;;20.42;39.49
60646;BME280;46462;32.608;-117.032;2022-12-07T13:11:40;99922.14;;;20.33;39.66
60646;BME280;46462;32.608;-117.032;2022-12-07T13:16:40;99933.56;;;20.33;39.91